createdAt,value
2022-09-12T00:01:34.880Z,9.06
2022-09-12T00:04:22.943Z,9.00
2022-09-12T00:07:10.956Z,8.88
2022-09-12T00:09:59.352Z,8.88
2022-09-12T00:12:47.116Z,8.81
2022-09-12T00:15:42.922Z,8.81
2022-09-12T00:18:30.859Z,8.88
2022-09-12T00:21:20.165Z,8.88
2022-09-12T00:24:09.328Z,8.94
2022-09-12T00:26:56.883Z,8.94
2022-09-12T00:29:44.893Z,8.88
2022-09-12T00:32:32.964Z,8.88
2022-09-12T00:35:21.379Z,8.81
2022-09-12T00:38:09.604Z,8.75
2022-09-12T00:40:57.312Z,8.75
2022-09-12T00:43:53.302Z,8.69
2022-09-12T00:46:57.135Z,8.69
2022-09-12T00:49:52.241Z,8.69
2022-09-12T00:52:48.261Z,8.56
2022-09-12T00:55:41.822Z,8.50
2022-09-12T00:58:38.729Z,8.50
2022-09-12T01:01:31.757Z,8.44
2022-09-12T01:04:23.748Z,8.44
2022-09-12T01:07:13.021Z,8.44
2022-09-12T01:10:00.860Z,8.44
2022-09-12T01:12:52.307Z,8.44
2022-09-12T01:15:40.895Z,8.38
2022-09-12T01:18:55.796Z,8.38
2022-09-12T01:22:17.858Z,8.38
2022-09-12T01:25:43.670Z,8.31
2022-09-12T01:29:10.028Z,8.38
2022-09-12T01:32:51.804Z,8.38
2022-09-12T01:36:40.657Z,8.38
2022-09-12T01:39:36.645Z,8.31
2022-09-12T01:42:47.221Z,8.31
2022-09-12T01:46:35.046Z,8.25
2022-09-12T01:49:46.603Z,8.25
2022-09-12T01:52:46.062Z,8.25
2022-09-12T01:55:50.124Z,8.25
2022-09-12T01:58:51.408Z,8.25
2022-09-12T02:02:11.335Z,8.19
2022-09-12T02:05:17.564Z,8.19
2022-09-12T02:08:20.957Z,8.19
2022-09-12T02:11:12.913Z,8.19
2022-09-12T02:14:12.188Z,8.19
2022-09-12T02:17:18.674Z,8.19
2022-09-12T02:20:37.488Z,8.25
2022-09-12T02:23:31.726Z,8.25
2022-09-12T02:26:38.848Z,8.19
2022-09-12T02:29:27.251Z,8.25
2022-09-12T02:32:56.034Z,8.25
2022-09-12T02:35:58.565Z,8.19
2022-09-12T02:38:48.869Z,8.19
2022-09-12T02:41:36.840Z,8.19
2022-09-12T02:44:27.348Z,8.19
2022-09-12T02:47:29.171Z,8.19
2022-09-12T02:50:18.112Z,8.19
2022-09-12T02:53:08.631Z,8.13
2022-09-12T02:55:57.429Z,8.13
2022-09-12T02:58:45.781Z,8.13
2022-09-12T03:02:07.098Z,8.06
2022-09-12T03:05:27.237Z,8.06
2022-09-12T03:09:01.609Z,8.19
2022-09-12T03:12:04.566Z,8.19
2022-09-12T03:15:11.109Z,8.25
2022-09-12T03:18:06.831Z,8.19
2022-09-12T03:21:46.248Z,8.19
2022-09-12T03:25:06.333Z,8.19
2022-09-12T03:28:07.690Z,8.13
2022-09-12T03:30:56.757Z,8.13
2022-09-12T03:33:45.402Z,8.19
2022-09-12T03:36:33.413Z,8.13
2022-09-12T03:39:24.452Z,8.13
2022-09-12T03:42:12.614Z,8.13
2022-09-12T03:45:00.640Z,8.06
2022-09-12T03:47:48.612Z,8.06
2022-09-12T03:50:36.639Z,8.06
2022-09-12T03:53:25.147Z,8.06
2022-09-12T03:56:14.767Z,8.06
2022-09-12T03:59:06.207Z,8.06
2022-09-12T04:01:53.873Z,8.13
2022-09-12T04:04:44.846Z,8.06
2022-09-12T04:07:32.858Z,8.06
2022-09-12T04:10:21.138Z,8.06
2022-09-12T04:13:09.349Z,8.13
2022-09-12T04:16:02.138Z,8.19
2022-09-12T04:18:49.930Z,8.13
2022-09-12T04:21:39.721Z,8.13
2022-09-12T04:24:27.562Z,8.13
2022-09-12T04:27:15.706Z,8.13
2022-09-12T04:30:04.304Z,8.13
2022-09-12T04:32:52.091Z,8.13
2022-09-12T04:35:39.921Z,8.13
2022-09-12T04:38:27.977Z,8.19
2022-09-12T04:41:21.288Z,8.25
2022-09-12T04:44:13.756Z,8.25
2022-09-12T04:47:01.703Z,8.31
2022-09-12T04:49:51.283Z,8.38
2022-09-12T04:52:38.789Z,8.44
2022-09-12T04:55:26.956Z,8.50
2022-09-12T04:58:15.100Z,8.56
2022-09-12T05:01:11.725Z,8.56
2022-09-12T05:04:00.186Z,8.63
2022-09-12T05:06:48.211Z,8.75
2022-09-12T05:09:35.899Z,8.88
2022-09-12T05:12:23.847Z,8.94
2022-09-12T05:15:12.039Z,9.00
2022-09-12T05:17:59.909Z,9.06
2022-09-12T05:20:47.861Z,9.13
2022-09-12T05:23:36.555Z,9.25
2022-09-12T05:26:24.741Z,9.38
2022-09-12T05:29:13.327Z,9.50
2022-09-12T05:32:02.155Z,9.69
2022-09-12T05:34:50.169Z,9.81
2022-09-12T05:37:37.831Z,9.88
2022-09-12T05:40:25.774Z,9.94
2022-09-12T05:43:13.932Z,10.00
2022-09-12T05:46:05.342Z,10.13
2022-09-12T05:48:56.426Z,10.38
2022-09-12T05:51:45.782Z,10.94
2022-09-12T05:54:34.533Z,11.00
2022-09-12T05:57:22.584Z,11.06
2022-09-12T06:00:11.616Z,11.13
2022-09-12T06:03:03.423Z,11.44
2022-09-12T06:05:51.209Z,11.88
2022-09-12T06:08:40.530Z,12.56
2022-09-12T06:11:31.994Z,13.31
2022-09-12T06:14:20.700Z,13.88
2022-09-12T06:17:08.738Z,14.19
2022-09-12T06:19:57.155Z,14.44
2022-09-12T06:22:45.031Z,14.69
2022-09-12T06:25:32.965Z,16.63
2022-09-12T06:28:21.077Z,24.38
2022-09-12T06:31:15.242Z,28.94
2022-09-12T06:34:07.003Z,31.44
2022-09-12T06:36:54.845Z,32.25
2022-09-12T06:39:42.755Z,31.94
2022-09-12T06:42:30.686Z,32.19
2022-09-12T06:45:20.158Z,31.88
2022-09-12T06:48:08.145Z,31.69
2022-09-12T06:51:02.308Z,31.38
2022-09-12T06:53:50.443Z,31.25
2022-09-12T06:56:38.254Z,31.56
2022-09-12T06:59:26.501Z,30.88
2022-09-12T07:02:14.485Z,30.50
2022-09-12T07:05:02.422Z,30.00
2022-09-12T07:07:50.333Z,30.38
2022-09-12T07:10:38.188Z,30.94
2022-09-12T07:13:26.585Z,31.25
2022-09-12T07:16:19.416Z,31.50
2022-09-12T07:19:09.132Z,31.88
2022-09-12T07:21:58.811Z,31.75
2022-09-12T07:24:48.024Z,30.94
2022-09-12T07:27:37.842Z,31.75
2022-09-12T07:30:28.050Z,32.00
2022-09-12T07:33:16.174Z,32.44
2022-09-12T07:36:08.142Z,32.50
2022-09-12T07:38:59.276Z,32.50
2022-09-12T07:41:47.357Z,32.44
2022-09-12T07:44:35.246Z,32.75
2022-09-12T07:47:23.474Z,32.69
2022-09-12T07:50:11.546Z,32.50
2022-09-12T07:52:59.851Z,32.13
2022-09-12T07:55:55.291Z,33.13
2022-09-12T07:58:44.806Z,33.56
2022-09-12T08:01:32.889Z,34.75
2022-09-12T08:04:21.435Z,35.94
2022-09-12T08:07:09.631Z,35.88
2022-09-12T08:09:57.673Z,36.19
2022-09-12T08:12:45.633Z,37.75
2022-09-12T08:15:35.206Z,35.25
2022-09-12T08:18:23.219Z,35.13
2022-09-12T08:21:17.189Z,32.69
2022-09-12T08:24:06.869Z,27.81
2022-09-12T08:26:54.807Z,29.00
2022-09-12T08:29:43.076Z,31.94
2022-09-12T08:32:32.327Z,34.75
2022-09-12T08:35:28.541Z,37.69
2022-09-12T08:38:16.550Z,35.81
2022-09-12T08:41:35.260Z,32.81
2022-09-12T08:44:58.872Z,33.44
2022-09-12T08:56:15.581Z,33.81
2022-09-12T08:59:03.574Z,29.56
2022-09-12T09:01:55.831Z,35.94
2022-09-12T09:04:52.342Z,36.81
2022-09-12T09:08:30.933Z,36.75
2022-09-12T09:11:36.587Z,30.25
2022-09-12T09:15:01.384Z,36.25
2022-09-12T09:18:06.258Z,41.38
2022-09-12T09:21:08.527Z,36.88
2022-09-12T09:25:25.118Z,44.00
2022-09-12T09:29:16.578Z,40.00
2022-09-12T09:32:23.760Z,30.69
2022-09-12T09:35:51.153Z,32.00
2022-09-12T09:38:55.212Z,42.50
2022-09-12T09:41:53.286Z,46.13
2022-09-12T09:44:41.429Z,47.25
2022-09-12T09:47:29.352Z,47.94
2022-09-12T09:50:17.751Z,49.00
2022-09-12T09:53:09.479Z,50.25
2022-09-12T09:56:03.402Z,49.75
2022-09-12T09:58:51.226Z,50.50
2022-09-12T10:02:14.304Z,49.81
2022-09-12T10:05:02.265Z,50.56
2022-09-12T10:07:53.085Z,49.44
2022-09-12T10:11:06.285Z,41.44
2022-09-12T10:13:58.142Z,33.06
2022-09-12T10:16:55.190Z,32.31
2022-09-12T10:19:43.333Z,43.13
2022-09-12T10:22:31.552Z,48.44
2022-09-12T10:25:21.578Z,50.81
2022-09-12T10:28:27.291Z,44.56
2022-09-12T10:31:31.930Z,38.88
2022-09-12T10:34:37.632Z,39.56
2022-09-12T10:37:36.179Z,45.38
2022-09-12T10:40:28.679Z,49.63
2022-09-12T10:43:39.318Z,50.38
2022-09-12T10:46:31.758Z,49.88
2022-09-12T10:49:31.585Z,49.63
2022-09-12T10:52:27.510Z,50.38
2022-09-12T10:55:16.017Z,48.81
2022-09-12T10:58:36.851Z,42.19
2022-09-12T11:01:36.731Z,35.75
2022-09-12T11:04:30.897Z,43.75
2022-09-12T11:08:18.975Z,48.75
2022-09-12T11:11:24.940Z,51.31
2022-09-12T11:14:37.303Z,51.63
2022-09-12T11:18:00.669Z,47.75
2022-09-12T11:21:18.536Z,36.63
2022-09-12T11:24:18.087Z,32.31
2022-09-12T11:27:21.150Z,40.38
2022-09-12T11:30:16.315Z,45.06
2022-09-12T11:33:22.112Z,47.44
2022-09-12T11:36:48.655Z,46.13
2022-09-12T11:39:44.398Z,35.00
2022-09-12T11:42:39.505Z,28.56
2022-09-12T11:45:40.583Z,29.63
2022-09-12T11:48:45.379Z,33.25
2022-09-12T11:51:41.590Z,38.75
2022-09-12T11:55:09.054Z,40.19
2022-09-12T11:58:01.740Z,40.50
2022-09-12T12:00:59.307Z,37.25
2022-09-12T12:03:48.990Z,31.19
2022-09-12T12:07:09.293Z,27.06
2022-09-12T12:09:57.541Z,24.81
2022-09-12T12:12:45.942Z,24.31
2022-09-12T12:15:37.757Z,23.88
2022-09-12T12:18:31.596Z,22.44
2022-09-12T12:21:36.733Z,21.81
2022-09-12T12:24:29.117Z,22.06
2022-09-12T12:27:44.930Z,22.75
2022-09-12T12:30:33.730Z,22.69
2022-09-12T12:33:22.033Z,22.25
2022-09-12T12:36:30.136Z,21.88
2022-09-12T12:39:33.517Z,21.88
2022-09-12T12:42:33.892Z,21.44
2022-09-12T12:45:27.911Z,21.25
2022-09-12T12:48:20.564Z,21.25
2022-09-12T12:51:23.846Z,20.88
2022-09-12T12:54:42.438Z,20.88
2022-09-12T12:57:47.201Z,20.75
2022-09-12T13:00:40.042Z,20.31
2022-09-12T13:03:32.796Z,20.50
2022-09-12T13:06:35.327Z,20.56
2022-09-12T13:09:37.809Z,20.75
2022-09-12T13:12:44.485Z,20.44
2022-09-12T13:15:35.783Z,20.00
2022-09-12T13:18:40.958Z,19.94
2022-09-12T13:21:28.962Z,19.81
2022-09-12T13:24:18.813Z,19.94
2022-09-12T13:27:24.156Z,19.75
2022-09-12T13:30:15.861Z,19.69
2022-09-12T13:33:32.819Z,19.56
2022-09-12T13:37:10.627Z,19.31
2022-09-12T13:40:44.276Z,19.31
2022-09-12T13:43:46.978Z,19.25
2022-09-12T13:46:34.916Z,19.13
2022-09-12T13:49:39.630Z,19.31
2022-09-12T13:52:33.611Z,19.44
2022-09-12T13:55:38.566Z,19.19
2022-09-12T13:58:29.046Z,19.25
2022-09-12T14:01:16.738Z,19.44
2022-09-12T14:04:49.752Z,19.44
2022-09-12T14:07:55.335Z,19.25
2022-09-12T14:10:50.506Z,19.00
2022-09-12T14:13:39.722Z,18.81
2022-09-12T14:16:29.261Z,18.63
2022-09-12T14:19:26.248Z,18.75
2022-09-12T14:22:18.160Z,18.88
2022-09-12T14:25:10.963Z,19.06
2022-09-12T14:27:59.237Z,19.06
2022-09-12T14:31:00.564Z,18.94
2022-09-12T14:34:11.354Z,18.88
2022-09-12T14:36:59.573Z,18.81
2022-09-12T14:39:47.485Z,18.94
2022-09-12T14:42:35.475Z,18.38
2022-09-12T14:45:32.590Z,18.06
2022-09-12T14:48:30.746Z,17.88
2022-09-12T14:51:36.711Z,17.75
2022-09-12T14:54:27.964Z,18.00
2022-09-12T14:57:42.485Z,17.88
2022-09-12T15:00:34.730Z,17.75
2022-09-12T15:03:32.569Z,17.88
2022-09-12T15:06:32.569Z,17.50
2022-09-12T15:09:20.546Z,17.13
2022-09-12T15:12:11.256Z,16.94
2022-09-12T15:15:20.752Z,17.19
2022-09-12T15:18:08.944Z,17.25
2022-09-12T15:21:05.634Z,16.88
2022-09-12T15:23:54.115Z,16.56
2022-09-12T15:26:41.720Z,16.38
2022-09-12T15:29:29.741Z,16.19
2022-09-12T15:32:30.387Z,16.06
2022-09-12T15:35:23.165Z,16.31
2022-09-12T15:38:13.628Z,16.31
2022-09-12T15:41:01.564Z,16.25
2022-09-12T15:44:01.538Z,16.31
2022-09-12T15:46:50.770Z,16.31
2022-09-12T15:49:39.192Z,16.38
2022-09-12T15:52:27.360Z,16.06
2022-09-12T15:55:25.959Z,15.81
2022-09-12T15:58:16.428Z,15.81
2022-09-12T16:01:05.777Z,15.81
2022-09-12T16:04:00.282Z,15.69
2022-09-12T16:06:48.308Z,15.50
2022-09-12T16:09:39.113Z,15.31
2022-09-12T16:12:26.918Z,15.19
2022-09-12T16:15:20.190Z,15.13
2022-09-12T16:18:14.241Z,15.13
2022-09-12T16:21:03.702Z,15.19
2022-09-12T16:23:52.747Z,15.13
2022-09-12T16:26:43.321Z,14.94
2022-09-12T16:29:33.612Z,14.69
2022-09-12T16:32:21.450Z,14.50
2022-09-12T16:35:12.132Z,14.31
2022-09-12T16:38:02.853Z,14.13
2022-09-12T16:40:50.973Z,13.94
2022-09-12T16:43:40.167Z,13.75
2022-09-12T16:46:29.053Z,13.63
2022-09-12T16:49:17.034Z,13.50
2022-09-12T16:52:08.655Z,13.38
2022-09-12T16:55:00.677Z,13.19
2022-09-12T16:57:49.713Z,13.06
2022-09-12T17:00:42.635Z,13.00
2022-09-12T17:03:31.895Z,12.88
2022-09-12T17:06:22.587Z,12.81
2022-09-12T17:09:11.683Z,12.75
2022-09-12T17:11:59.338Z,12.63
2022-09-12T17:14:47.153Z,12.56
2022-09-12T17:17:35.914Z,12.50
2022-09-12T17:20:26.088Z,12.50
2022-09-12T17:23:14.313Z,12.38
2022-09-12T17:26:03.859Z,12.31
2022-09-12T17:28:51.492Z,12.19
2022-09-12T17:31:43.745Z,12.13
2022-09-12T17:34:39.341Z,12.13
2022-09-12T17:37:33.583Z,12.06
2022-09-12T17:40:37.242Z,12.00
2022-09-12T17:43:33.611Z,11.88
2022-09-12T17:46:24.495Z,11.81
2022-09-12T17:49:16.960Z,11.81
2022-09-12T17:52:05.303Z,11.69
2022-09-12T17:54:53.123Z,11.63
2022-09-12T17:57:42.172Z,11.63
2022-09-12T18:00:49.819Z,11.56
2022-09-12T18:03:37.681Z,11.56
2022-09-12T18:06:25.879Z,11.50
2022-09-12T18:09:18.836Z,11.44
2022-09-12T18:12:08.288Z,11.38
2022-09-12T18:14:56.363Z,11.31
2022-09-12T18:17:46.936Z,11.31
2022-09-12T18:20:34.910Z,11.25
2022-09-12T18:23:22.863Z,11.19
2022-09-12T18:26:12.684Z,11.13
2022-09-12T18:29:00.895Z,11.06
2022-09-12T18:31:52.784Z,11.00
2022-09-12T18:34:40.890Z,10.94
2022-09-12T18:37:28.961Z,10.88
2022-09-12T18:40:17.576Z,10.88
2022-09-12T18:43:05.590Z,10.81
2022-09-12T18:45:53.585Z,10.75
2022-09-12T18:48:42.961Z,10.75
2022-09-12T18:51:36.209Z,10.69
2022-09-12T18:54:24.118Z,10.75
2022-09-12T18:57:12.177Z,10.75
2022-09-12T18:59:59.828Z,10.75
2022-09-12T19:02:48.018Z,10.75
2022-09-12T19:05:35.772Z,10.75
2022-09-12T19:08:25.519Z,10.69
2022-09-12T19:11:13.669Z,10.69
2022-09-12T19:14:02.250Z,10.63
2022-09-12T19:16:52.309Z,10.69
2022-09-12T19:19:40.941Z,10.63
2022-09-12T19:22:29.752Z,10.69
2022-09-12T19:25:17.616Z,10.63
2022-09-12T19:28:05.856Z,10.56
2022-09-12T19:30:54.162Z,10.50
2022-09-12T19:33:42.743Z,10.44
2022-09-12T19:36:45.002Z,10.44
2022-09-12T19:39:41.748Z,10.38
2022-09-12T19:42:29.701Z,10.31
2022-09-12T19:45:17.648Z,10.25
2022-09-12T19:48:05.859Z,10.25
2022-09-12T19:50:54.076Z,10.19
2022-09-12T19:53:43.795Z,10.19
2022-09-12T19:56:35.058Z,10.19
2022-09-12T19:59:25.775Z,10.19
2022-09-12T20:02:16.283Z,10.13
2022-09-12T20:05:05.802Z,10.13
2022-09-12T20:07:55.902Z,10.13
2022-09-12T20:10:44.332Z,10.13
2022-09-12T20:13:35.709Z,10.06
2022-09-12T20:16:29.612Z,10.06
2022-09-12T20:19:17.905Z,10.06
2022-09-12T20:22:05.939Z,10.06
2022-09-12T20:24:57.307Z,10.00
2022-09-12T20:27:48.404Z,10.00
2022-09-12T20:30:36.223Z,10.00
2022-09-12T20:33:27.607Z,9.94
2022-09-12T20:36:19.114Z,9.94
2022-09-12T20:39:08.864Z,9.94
2022-09-12T20:41:56.519Z,9.94
2022-09-12T20:44:44.425Z,9.94
2022-09-12T20:47:32.224Z,9.94
2022-09-12T20:50:21.121Z,9.94
2022-09-12T20:53:08.853Z,9.94
2022-09-12T20:55:57.027Z,9.88
2022-09-12T20:58:45.068Z,9.88
2022-09-12T21:01:33.618Z,9.88
2022-09-12T21:04:22.975Z,9.81
2022-09-12T21:07:10.804Z,9.81
2022-09-12T21:09:58.894Z,9.75
2022-09-12T21:12:46.837Z,9.69
2022-09-12T21:15:35.058Z,9.56
2022-09-12T21:18:23.134Z,9.50
2022-09-12T21:21:15.109Z,9.44
2022-09-12T21:24:04.028Z,9.38
2022-09-12T21:26:51.845Z,9.31
2022-09-12T21:29:39.857Z,9.25
2022-09-12T21:32:34.701Z,9.19
2022-09-12T21:35:22.676Z,9.19
2022-09-12T21:38:11.513Z,9.13
2022-09-12T21:41:12.150Z,9.06
2022-09-12T21:44:00.209Z,9.00
2022-09-12T21:46:48.604Z,8.94
2022-09-12T21:49:36.431Z,8.94
2022-09-12T21:52:32.040Z,8.88
2022-09-12T21:55:30.140Z,8.88
2022-09-12T21:58:51.451Z,8.88
2022-09-12T22:06:08.923Z,8.81
2022-09-12T22:09:01.671Z,8.75
2022-09-12T22:12:40.825Z,8.75
2022-09-12T22:15:56.552Z,8.75
2022-09-12T22:18:50.771Z,8.75
2022-09-12T22:22:03.057Z,8.75
2022-09-12T22:25:06.470Z,8.81
2022-09-12T22:28:21.613Z,8.81
2022-09-12T22:31:27.055Z,8.75
2022-09-12T22:34:41.025Z,8.81
2022-09-12T22:37:37.292Z,8.75
2022-09-12T22:40:25.135Z,8.75
2022-09-12T22:43:13.183Z,8.75
2022-09-12T22:46:01.795Z,8.75
2022-09-12T22:48:49.763Z,8.75
2022-09-12T22:51:37.897Z,8.75
2022-09-12T22:54:26.004Z,8.75
2022-09-12T22:57:17.107Z,8.69
2022-09-12T23:00:12.601Z,8.63
2022-09-12T23:03:00.472Z,8.56
2022-09-12T23:05:49.128Z,8.56
2022-09-12T23:08:38.979Z,8.56
2022-09-12T23:11:28.058Z,8.44
2022-09-12T23:14:17.354Z,8.44
2022-09-12T23:17:05.269Z,8.38
2022-09-12T23:19:53.077Z,8.31
2022-09-12T23:22:41.007Z,8.25
2022-09-12T23:25:28.950Z,8.25
2022-09-12T23:28:17.065Z,8.25
2022-09-12T23:31:06.331Z,8.19
2022-09-12T23:33:56.035Z,8.19
2022-09-12T23:36:43.758Z,8.19
2022-09-12T23:39:35.009Z,8.19
2022-09-12T23:42:22.893Z,8.19
2022-09-12T23:45:11.043Z,8.13
2022-09-12T23:47:58.683Z,8.13
2022-09-12T23:50:48.623Z,8.06
2022-09-12T23:53:37.322Z,8.00
2022-09-12T23:56:25.643Z,8.00
2022-09-12T23:59:13.607Z,7.94
